sensor_id;sensor_type;location;lat;lon;timestamp;temperature;humidity
28171;DHT22;15458;53.346;-1.688;2023-10-08T00:02:03;16.20;99.90
28171;DHT22;15458;53.346;-1.688;2023-10-08T00:04:32;16.20;99.90
28171;DHT22;15458;53.346;-1.688;2023-10-08T00:07:03;16.20;99.90
28171;DHT22;15458;53.346;-1.688;2023-10-08T00:09:33;16.10;99.90
28171;DHT22;15458;53.346;-1.688;2023-10-08T00:12:05;16.10;99.90
28171;DHT22;15458;53.346;-1.688;2023-10-08T00:14:31;16.10;99.90
28171;DHT22;15458;53.346;-1.688;2023-10-08T00:17:12;16.10;99.90
28171;DHT22;15458;53.346;-1.688;2023-10-08T00:19:38;16.10;99.90
28171;DHT22;15458;53.346;-1.688;2023-10-08T00:22:05;16.10;99.90
28171;DHT22;15458;53.346;-1.688;2023-10-08T00:24:32;16.00;99.90
28171;DHT22;15458;53.346;-1.688;2023-10-08T00:26:59;16.00;99.90
28171;DHT22;15458;53.346;-1.688;2023-10-08T00:29:26;16.10;99.90
28171;DHT22;15458;53.346;-1.688;2023-10-08T00:31:52;16.00;99.90
28171;DHT22;15458;53.346;-1.688;2023-10-08T00:34:22;16.10;99.90
28171;DHT22;15458;53.346;-1.688;2023-10-08T00:36:50;16.00;99.90
28171;DHT22;15458;53.346;-1.688;2023-10-08T00:39:17;16.00;99.90
28171;DHT22;15458;53.346;-1.688;2023-10-08T00:41:49;16.00;99.90
28171;DHT22;15458;53.346;-1.688;2023-10-08T00:44:15;16.00;99.90
28171;DHT22;15458;53.346;-1.688;2023-10-08T00:46:51;16.00;99.90
28171;DHT22;15458;53.346;-1.688;2023-10-08T00:49:20;16.00;99.90
28171;DHT22;15458;53.346;-1.688;2023-10-08T00:51:47;16.00;99.90
28171;DHT22;15458;53.346;-1.688;2023-10-08T00:54:21;16.00;99.90
28171;DHT22;15458;53.346;-1.688;2023-10-08T00:56:50;16.00;99.90
28171;DHT22;15458;53.346;-1.688;2023-10-08T00:59:23;16.00;99.90
28171;DHT22;15458;53.346;-1.688;2023-10-08T01:01:51;15.90;99.90
28171;DHT22;15458;53.346;-1.688;2023-10-08T01:04:22;15.90;99.90
28171;DHT22;15458;53.346;-1.688;2023-10-08T01:06:51;15.90;99.90
28171;DHT22;15458;53.346;-1.688;2023-10-08T01:09:22;15.90;99.90
28171;DHT22;15458;53.346;-1.688;2023-10-08T01:12:11;15.80;99.90
28171;DHT22;15458;53.346;-1.688;2023-10-08T01:14:42;15.80;99.90
28171;DHT22;15458;53.346;-1.688;2023-10-08T01:17:09;15.80;99.90
28171;DHT22;15458;53.346;-1.688;2023-10-08T01:19:38;15.70;99.90
28171;DHT22;15458;53.346;-1.688;2023-10-08T01:22:05;15.70;99.90
28171;DHT22;15458;53.346;-1.688;2023-10-08T01:24:38;15.70;99.90
28171;DHT22;15458;53.346;-1.688;2023-10-08T01:27:04;15.70;99.90
28171;DHT22;15458;53.346;-1.688;2023-10-08T01:29:30;15.70;99.90
28171;DHT22;15458;53.346;-1.688;2023-10-08T01:31:57;15.60;99.90
28171;DHT22;15458;53.346;-1.688;2023-10-08T01:34:23;15.60;99.90
28171;DHT22;15458;53.346;-1.688;2023-10-08T01:37:01;15.60;99.90
28171;DHT22;15458;53.346;-1.688;2023-10-08T01:39:36;15.50;99.90
28171;DHT22;15458;53.346;-1.688;2023-10-08T01:42:03;15.50;99.90
28171;DHT22;15458;53.346;-1.688;2023-10-08T01:44:30;15.50;99.90
28171;DHT22;15458;53.346;-1.688;2023-10-08T01:46:59;15.50;99.90
28171;DHT22;15458;53.346;-1.688;2023-10-08T01:49:26;15.40;99.90
28171;DHT22;15458;53.346;-1.688;2023-10-08T01:51:57;15.40;99.90
28171;DHT22;15458;53.346;-1.688;2023-10-08T01:54:23;15.40;99.90
28171;DHT22;15458;53.346;-1.688;2023-10-08T01:56:51;15.40;99.90
28171;DHT22;15458;53.346;-1.688;2023-10-08T01:59:17;15.40;99.90
28171;DHT22;15458;53.346;-1.688;2023-10-08T02:01:43;15.40;99.90
28171;DHT22;15458;53.346;-1.688;2023-10-08T02:04:10;15.30;99.90
28171;DHT22;15458;53.346;-1.688;2023-10-08T02:06:41;15.30;99.90
28171;DHT22;15458;53.346;-1.688;2023-10-08T02:09:07;15.20;99.90
28171;DHT22;15458;53.346;-1.688;2023-10-08T02:11:47;15.20;99.90
28171;DHT22;15458;53.346;-1.688;2023-10-08T02:14:20;15.10;99.90
28171;DHT22;15458;53.346;-1.688;2023-10-08T02:16:46;15.10;99.90
28171;DHT22;15458;53.346;-1.688;2023-10-08T02:19:13;15.10;99.90
28171;DHT22;15458;53.346;-1.688;2023-10-08T02:21:39;15.10;99.90
28171;DHT22;15458;53.346;-1.688;2023-10-08T02:24:08;15.00;99.90
28171;DHT22;15458;53.346;-1.688;2023-10-08T02:26:34;15.00;99.90
28171;DHT22;15458;53.346;-1.688;2023-10-08T02:29:01;15.00;99.90
28171;DHT22;15458;53.346;-1.688;2023-10-08T02:31:27;15.00;99.90
28171;DHT22;15458;53.346;-1.688;2023-10-08T02:33:53;15.00;99.90
28171;DHT22;15458;53.346;-1.688;2023-10-08T02:36:20;15.00;99.90
28171;DHT22;15458;53.346;-1.688;2023-10-08T02:38:46;15.00;99.90
28171;DHT22;15458;53.346;-1.688;2023-10-08T02:41:18;15.00;99.90
28171;DHT22;15458;53.346;-1.688;2023-10-08T02:43:44;15.00;99.90
28171;DHT22;15458;53.346;-1.688;2023-10-08T02:46:13;15.00;99.90
28171;DHT22;15458;53.346;-1.688;2023-10-08T02:48:41;15.00;99.90
28171;DHT22;15458;53.346;-1.688;2023-10-08T02:51:07;14.90;99.90
28171;DHT22;15458;53.346;-1.688;2023-10-08T02:53:39;14.90;99.90
28171;DHT22;15458;53.346;-1.688;2023-10-08T02:56:08;14.90;99.90
28171;DHT22;15458;53.346;-1.688;2023-10-08T02:58:39;14.90;99.90
28171;DHT22;15458;53.346;-1.688;2023-10-08T03:01:05;14.90;99.90
28171;DHT22;15458;53.346;-1.688;2023-10-08T03:03:31;14.90;99.90
28171;DHT22;15458;53.346;-1.688;2023-10-08T03:05:58;14.90;99.90
28171;DHT22;15458;53.346;-1.688;2023-10-08T03:08:24;14.80;99.90
28171;DHT22;15458;53.346;-1.688;2023-10-08T03:10:51;14.80;99.90
28171;DHT22;15458;53.346;-1.688;2023-10-08T03:13:28;14.80;99.90
28171;DHT22;15458;53.346;-1.688;2023-10-08T03:15:54;14.80;99.90
28171;DHT22;15458;53.346;-1.688;2023-10-08T03:18:34;14.70;99.90
28171;DHT22;15458;53.346;-1.688;2023-10-08T03:21:07;14.70;99.90
28171;DHT22;15458;53.346;-1.688;2023-10-08T03:24:08;14.60;99.90
28171;DHT22;15458;53.346;-1.688;2023-10-08T03:26:55;14.60;99.90
28171;DHT22;15458;53.346;-1.688;2023-10-08T03:29:32;14.60;99.90
28171;DHT22;15458;53.346;-1.688;2023-10-08T03:31:57;14.60;99.90
28171;DHT22;15458;53.346;-1.688;2023-10-08T03:34:23;14.50;99.90
28171;DHT22;15458;53.346;-1.688;2023-10-08T03:36:53;14.50;99.90
28171;DHT22;15458;53.346;-1.688;2023-10-08T03:39:25;14.40;99.90
28171;DHT22;15458;53.346;-1.688;2023-10-08T03:42:11;14.40;99.90
28171;DHT22;15458;53.346;-1.688;2023-10-08T03:44:39;14.30;99.90
28171;DHT22;15458;53.346;-1.688;2023-10-08T03:47:08;14.30;99.90
28171;DHT22;15458;53.346;-1.688;2023-10-08T03:49:36;14.30;99.90
28171;DHT22;15458;53.346;-1.688;2023-10-08T03:52:10;14.20;99.90
28171;DHT22;15458;53.346;-1.688;2023-10-08T03:54:36;14.20;99.90
28171;DHT22;15458;53.346;-1.688;2023-10-08T03:57:10;14.20;99.90
28171;DHT22;15458;53.346;-1.688;2023-10-08T03:59:44;14.20;99.90
28171;DHT22;15458;53.346;-1.688;2023-10-08T04:02:14;14.20;99.90
28171;DHT22;15458;53.346;-1.688;2023-10-08T04:04:43;14.20;99.90
28171;DHT22;15458;53.346;-1.688;2023-10-08T04:07:23;14.20;99.90
28171;DHT22;15458;53.346;-1.688;2023-10-08T04:10:10;14.10;99.90
28171;DHT22;15458;53.346;-1.688;2023-10-08T04:12:36;14.10;99.90
28171;DHT22;15458;53.346;-1.688;2023-10-08T04:15:10;14.10;99.90
28171;DHT22;15458;53.346;-1.688;2023-10-08T04:17:38;14.10;99.90
28171;DHT22;15458;53.346;-1.688;2023-10-08T04:20:10;14.10;99.90
28171;DHT22;15458;53.346;-1.688;2023-10-08T04:22:57;14.10;99.90
28171;DHT22;15458;53.346;-1.688;2023-10-08T04:25:26;14.10;99.90
28171;DHT22;15458;53.346;-1.688;2023-10-08T04:27:57;14.10;99.90
28171;DHT22;15458;53.346;-1.688;2023-10-08T04:30:26;14.10;99.90
28171;DHT22;15458;53.346;-1.688;2023-10-08T04:35:37;14.00;99.90
28171;DHT22;15458;53.346;-1.688;2023-10-08T04:38:09;14.00;99.90
28171;DHT22;15458;53.346;-1.688;2023-10-08T04:40:36;14.00;99.90
28171;DHT22;15458;53.346;-1.688;2023-10-08T04:43:17;14.00;99.90
28171;DHT22;15458;53.346;-1.688;2023-10-08T04:45:57;14.00;99.90
28171;DHT22;15458;53.346;-1.688;2023-10-08T04:48:24;14.00;99.90
28171;DHT22;15458;53.346;-1.688;2023-10-08T04:50:52;14.00;99.90
28171;DHT22;15458;53.346;-1.688;2023-10-08T04:53:30;14.00;99.90
28171;DHT22;15458;53.346;-1.688;2023-10-08T04:56:08;14.00;99.90
28171;DHT22;15458;53.346;-1.688;2023-10-08T04:58:46;14.00;99.90
28171;DHT22;15458;53.346;-1.688;2023-10-08T05:01:17;14.00;99.90
28171;DHT22;15458;53.346;-1.688;2023-10-08T05:03:53;14.00;99.90
28171;DHT22;15458;53.346;-1.688;2023-10-08T05:06:26;14.00;99.90
28171;DHT22;15458;53.346;-1.688;2023-10-08T05:09:13;14.10;99.90
28171;DHT22;15458;53.346;-1.688;2023-10-08T05:11:45;14.10;99.90
28171;DHT22;15458;53.346;-1.688;2023-10-08T05:14:21;14.10;99.90
28171;DHT22;15458;53.346;-1.688;2023-10-08T05:17:03;14.00;99.90
28171;DHT22;15458;53.346;-1.688;2023-10-08T05:19:35;14.00;99.90
28171;DHT22;15458;53.346;-1.688;2023-10-08T05:22:14;14.00;99.90
28171;DHT22;15458;53.346;-1.688;2023-10-08T05:25:03;14.00;99.90
28171;DHT22;15458;53.346;-1.688;2023-10-08T05:27:45;14.10;99.90
28171;DHT22;15458;53.346;-1.688;2023-10-08T05:30:17;14.10;99.90
28171;DHT22;15458;53.346;-1.688;2023-10-08T05:33:07;14.10;99.90
28171;DHT22;15458;53.346;-1.688;2023-10-08T05:35:59;14.10;99.90
28171;DHT22;15458;53.346;-1.688;2023-10-08T05:38:43;14.10;99.90
28171;DHT22;15458;53.346;-1.688;2023-10-08T05:41:28;14.10;99.90
28171;DHT22;15458;53.346;-1.688;2023-10-08T05:44:04;14.10;99.90
28171;DHT22;15458;53.346;-1.688;2023-10-08T05:46:40;14.10;99.90
28171;DHT22;15458;53.346;-1.688;2023-10-08T05:49:16;14.20;99.90
28171;DHT22;15458;53.346;-1.688;2023-10-08T05:52:01;14.10;99.90
28171;DHT22;15458;53.346;-1.688;2023-10-08T05:54:27;14.10;99.90
28171;DHT22;15458;53.346;-1.688;2023-10-08T05:59:45;14.10;99.90
28171;DHT22;15458;53.346;-1.688;2023-10-08T06:02:26;14.10;99.90
28171;DHT22;15458;53.346;-1.688;2023-10-08T06:07:51;14.00;99.90
28171;DHT22;15458;53.346;-1.688;2023-10-08T06:10:27;14.00;99.90
28171;DHT22;15458;53.346;-1.688;2023-10-08T06:13:06;14.00;99.90
28171;DHT22;15458;53.346;-1.688;2023-10-08T06:15:42;14.00;99.90
28171;DHT22;15458;53.346;-1.688;2023-10-08T06:18:21;13.90;99.90
28171;DHT22;15458;53.346;-1.688;2023-10-08T06:20:58;14.00;99.90
28171;DHT22;15458;53.346;-1.688;2023-10-08T06:23:29;13.90;99.90
28171;DHT22;15458;53.346;-1.688;2023-10-08T06:25:58;14.00;99.90
28171;DHT22;15458;53.346;-1.688;2023-10-08T06:28:37;14.00;99.90
28171;DHT22;15458;53.346;-1.688;2023-10-08T06:31:05;14.00;99.90
28171;DHT22;15458;53.346;-1.688;2023-10-08T06:33:32;14.00;99.90
28171;DHT22;15458;53.346;-1.688;2023-10-08T06:36:02;14.00;99.90
28171;DHT22;15458;53.346;-1.688;2023-10-08T06:38:32;14.10;99.90
28171;DHT22;15458;53.346;-1.688;2023-10-08T06:40:59;14.10;99.90
28171;DHT22;15458;53.346;-1.688;2023-10-08T06:43:26;14.10;99.90
28171;DHT22;15458;53.346;-1.688;2023-10-08T06:45:52;14.10;99.90
28171;DHT22;15458;53.346;-1.688;2023-10-08T06:48:20;14.20;99.90
28171;DHT22;15458;53.346;-1.688;2023-10-08T06:50:47;14.20;99.90
28171;DHT22;15458;53.346;-1.688;2023-10-08T06:53:13;14.20;99.90
28171;DHT22;15458;53.346;-1.688;2023-10-08T06:55:42;14.20;99.90
28171;DHT22;15458;53.346;-1.688;2023-10-08T06:58:09;14.20;99.90
28171;DHT22;15458;53.346;-1.688;2023-10-08T07:00:36;14.20;99.90
28171;DHT22;15458;53.346;-1.688;2023-10-08T07:03:06;14.20;99.90
28171;DHT22;15458;53.346;-1.688;2023-10-08T07:05:44;14.30;99.90
28171;DHT22;15458;53.346;-1.688;2023-10-08T07:08:21;14.20;99.90
28171;DHT22;15458;53.346;-1.688;2023-10-08T07:10:51;14.30;99.90
28171;DHT22;15458;53.346;-1.688;2023-10-08T07:13:21;14.30;99.90
28171;DHT22;15458;53.346;-1.688;2023-10-08T07:15:52;14.30;99.90
28171;DHT22;15458;53.346;-1.688;2023-10-08T07:18:18;14.30;99.90
28171;DHT22;15458;53.346;-1.688;2023-10-08T07:20:55;14.30;99.90
28171;DHT22;15458;53.346;-1.688;2023-10-08T07:23:27;14.30;99.90
28171;DHT22;15458;53.346;-1.688;2023-10-08T07:26:00;14.40;99.90
28171;DHT22;15458;53.346;-1.688;2023-10-08T07:28:45;14.40;99.90
28171;DHT22;15458;53.346;-1.688;2023-10-08T07:31:22;14.40;99.90
28171;DHT22;15458;53.346;-1.688;2023-10-08T07:33:56;14.40;99.90
28171;DHT22;15458;53.346;-1.688;2023-10-08T07:36:26;14.50;99.90
28171;DHT22;15458;53.346;-1.688;2023-10-08T07:38:55;14.50;99.90
28171;DHT22;15458;53.346;-1.688;2023-10-08T07:41:21;14.50;99.90
28171;DHT22;15458;53.346;-1.688;2023-10-08T07:43:47;14.50;99.90
28171;DHT22;15458;53.346;-1.688;2023-10-08T07:46:25;14.50;99.90
28171;DHT22;15458;53.346;-1.688;2023-10-08T07:48:54;14.50;99.90
28171;DHT22;15458;53.346;-1.688;2023-10-08T07:51:21;14.60;99.90
28171;DHT22;15458;53.346;-1.688;2023-10-08T07:53:53;14.60;99.90
28171;DHT22;15458;53.346;-1.688;2023-10-08T07:56:22;14.60;99.90
28171;DHT22;15458;53.346;-1.688;2023-10-08T07:58:49;14.60;99.90
28171;DHT22;15458;53.346;-1.688;2023-10-08T08:01:15;14.60;99.90
28171;DHT22;15458;53.346;-1.688;2023-10-08T08:03:41;14.60;99.90
28171;DHT22;15458;53.346;-1.688;2023-10-08T08:06:08;14.60;99.90
28171;DHT22;15458;53.346;-1.688;2023-10-08T08:08:38;14.60;99.90
28171;DHT22;15458;53.346;-1.688;2023-10-08T08:11:08;14.60;99.90
28171;DHT22;15458;53.346;-1.688;2023-10-08T08:13:44;14.70;99.90
28171;DHT22;15458;53.346;-1.688;2023-10-08T08:16:14;14.70;99.90
28171;DHT22;15458;53.346;-1.688;2023-10-08T08:18:47;14.70;99.90
28171;DHT22;15458;53.346;-1.688;2023-10-08T08:21:14;14.80;99.90
28171;DHT22;15458;53.346;-1.688;2023-10-08T08:23:46;14.80;99.90
28171;DHT22;15458;53.346;-1.688;2023-10-08T08:26:20;14.80;99.90
28171;DHT22;15458;53.346;-1.688;2023-10-08T08:29:02;14.80;99.90
28171;DHT22;15458;53.346;-1.688;2023-10-08T08:31:31;14.80;99.90
28171;DHT22;15458;53.346;-1.688;2023-10-08T08:33:58;14.80;99.90
28171;DHT22;15458;53.346;-1.688;2023-10-08T08:36:43;14.80;99.90
28171;DHT22;15458;53.346;-1.688;2023-10-08T08:39:12;14.80;99.90
28171;DHT22;15458;53.346;-1.688;2023-10-08T08:41:59;14.90;99.90
28171;DHT22;15458;53.346;-1.688;2023-10-08T08:44:28;14.90;99.90
28171;DHT22;15458;53.346;-1.688;2023-10-08T08:46:59;14.90;99.90
28171;DHT22;15458;53.346;-1.688;2023-10-08T08:49:33;14.90;99.90
28171;DHT22;15458;53.346;-1.688;2023-10-08T08:52:03;15.00;99.90
28171;DHT22;15458;53.346;-1.688;2023-10-08T08:54:29;15.10;99.90
28171;DHT22;15458;53.346;-1.688;2023-10-08T08:57:01;15.10;99.90
28171;DHT22;15458;53.346;-1.688;2023-10-08T08:59:30;15.20;99.90
28171;DHT22;15458;53.346;-1.688;2023-10-08T09:02:00;15.20;99.90
28171;DHT22;15458;53.346;-1.688;2023-10-08T09:04:32;15.30;99.90
28171;DHT22;15458;53.346;-1.688;2023-10-08T09:07:04;15.30;99.90
28171;DHT22;15458;53.346;-1.688;2023-10-08T09:09:34;15.40;99.90
28171;DHT22;15458;53.346;-1.688;2023-10-08T09:12:07;15.40;99.90
28171;DHT22;15458;53.346;-1.688;2023-10-08T09:14:36;15.40;99.90
28171;DHT22;15458;53.346;-1.688;2023-10-08T09:17:04;15.50;99.90
28171;DHT22;15458;53.346;-1.688;2023-10-08T09:19:36;15.50;99.90
28171;DHT22;15458;53.346;-1.688;2023-10-08T09:22:09;15.60;99.90
28171;DHT22;15458;53.346;-1.688;2023-10-08T09:24:41;15.60;99.90
28171;DHT22;15458;53.346;-1.688;2023-10-08T09:27:10;15.60;99.90
28171;DHT22;15458;53.346;-1.688;2023-10-08T09:29:42;15.70;99.90
28171;DHT22;15458;53.346;-1.688;2023-10-08T09:32:10;15.70;99.90
28171;DHT22;15458;53.346;-1.688;2023-10-08T09:34:38;15.70;99.90
28171;DHT22;15458;53.346;-1.688;2023-10-08T09:37:04;15.80;99.90
28171;DHT22;15458;53.346;-1.688;2023-10-08T09:39:31;15.90;99.90
28171;DHT22;15458;53.346;-1.688;2023-10-08T09:42:01;16.00;99.90
28171;DHT22;15458;53.346;-1.688;2023-10-08T09:44:39;16.10;99.90
28171;DHT22;15458;53.346;-1.688;2023-10-08T09:47:07;16.10;99.90
28171;DHT22;15458;53.346;-1.688;2023-10-08T09:49:56;16.20;99.90
28171;DHT22;15458;53.346;-1.688;2023-10-08T09:52:31;16.30;99.90
28171;DHT22;15458;53.346;-1.688;2023-10-08T09:55:08;16.40;99.90
28171;DHT22;15458;53.346;-1.688;2023-10-08T09:57:36;16.50;99.90
28171;DHT22;15458;53.346;-1.688;2023-10-08T10:00:05;16.70;99.90
28171;DHT22;15458;53.346;-1.688;2023-10-08T10:02:38;16.80;99.90
28171;DHT22;15458;53.346;-1.688;2023-10-08T10:05:04;16.90;99.90
28171;DHT22;15458;53.346;-1.688;2023-10-08T10:07:35;17.00;99.90
28171;DHT22;15458;53.346;-1.688;2023-10-08T10:10:00;17.00;99.90
28171;DHT22;15458;53.346;-1.688;2023-10-08T10:12:27;17.00;99.90
28171;DHT22;15458;53.346;-1.688;2023-10-08T10:14:55;17.10;99.90
28171;DHT22;15458;53.346;-1.688;2023-10-08T10:17:23;17.10;99.90
28171;DHT22;15458;53.346;-1.688;2023-10-08T10:19:59;17.20;99.90
28171;DHT22;15458;53.346;-1.688;2023-10-08T10:22:35;17.30;99.90
28171;DHT22;15458;53.346;-1.688;2023-10-08T10:25:05;17.40;99.90
28171;DHT22;15458;53.346;-1.688;2023-10-08T10:30:16;17.60;99.90
28171;DHT22;15458;53.346;-1.688;2023-10-08T10:32:44;17.60;99.90
28171;DHT22;15458;53.346;-1.688;2023-10-08T10:35:16;17.70;99.90
28171;DHT22;15458;53.346;-1.688;2023-10-08T10:37:45;17.80;99.90
28171;DHT22;15458;53.346;-1.688;2023-10-08T10:40:22;17.80;99.90
28171;DHT22;15458;53.346;-1.688;2023-10-08T10:42:58;17.80;99.90
28171;DHT22;15458;53.346;-1.688;2023-10-08T10:45:31;17.80;99.90
28171;DHT22;15458;53.346;-1.688;2023-10-08T10:48:07;18.00;99.90
28171;DHT22;15458;53.346;-1.688;2023-10-08T10:50:49;18.00;99.90
28171;DHT22;15458;53.346;-1.688;2023-10-08T10:53:40;18.10;99.90
28171;DHT22;15458;53.346;-1.688;2023-10-08T10:56:25;18.10;99.90
28171;DHT22;15458;53.346;-1.688;2023-10-08T10:59:00;18.20;99.90
28171;DHT22;15458;53.346;-1.688;2023-10-08T11:01:31;18.30;99.90
28171;DHT22;15458;53.346;-1.688;2023-10-08T11:04:10;18.50;99.90
28171;DHT22;15458;53.346;-1.688;2023-10-08T11:06:48;18.70;99.90
28171;DHT22;15458;53.346;-1.688;2023-10-08T11:09:16;19.00;99.90
28171;DHT22;15458;53.346;-1.688;2023-10-08T11:11:48;19.40;99.90
28171;DHT22;15458;53.346;-1.688;2023-10-08T11:14:23;19.80;99.90
28171;DHT22;15458;53.346;-1.688;2023-10-08T11:16:58;20.10;99.90
28171;DHT22;15458;53.346;-1.688;2023-10-08T11:19:24;20.40;99.90
28171;DHT22;15458;53.346;-1.688;2023-10-08T11:21:53;20.80;99.90
28171;DHT22;15458;53.346;-1.688;2023-10-08T11:24:31;21.00;99.90
28171;DHT22;15458;53.346;-1.688;2023-10-08T11:27:04;21.30;99.90
28171;DHT22;15458;53.346;-1.688;2023-10-08T11:29:49;21.50;99.90
28171;DHT22;15458;53.346;-1.688;2023-10-08T11:32:33;21.70;99.90
28171;DHT22;15458;53.346;-1.688;2023-10-08T11:34:59;21.90;99.90
28171;DHT22;15458;53.346;-1.688;2023-10-08T11:37:30;22.10;99.90
28171;DHT22;15458;53.346;-1.688;2023-10-08T11:40:00;22.30;99.90
28171;DHT22;15458;53.346;-1.688;2023-10-08T11:42:34;22.50;99.90
28171;DHT22;15458;53.346;-1.688;2023-10-08T11:45:07;22.90;99.90
28171;DHT22;15458;53.346;-1.688;2023-10-08T11:47:50;23.20;99.90
28171;DHT22;15458;53.346;-1.688;2023-10-08T11:50:31;23.50;99.90
28171;DHT22;15458;53.346;-1.688;2023-10-08T11:53:06;23.80;99.90
28171;DHT22;15458;53.346;-1.688;2023-10-08T11:55:36;24.20;99.40
28171;DHT22;15458;53.346;-1.688;2023-10-08T11:58:05;24.60;97.50
28171;DHT22;15458;53.346;-1.688;2023-10-08T12:00:43;24.90;95.90
28171;DHT22;15458;53.346;-1.688;2023-10-08T12:03:11;25.30;94.30
28171;DHT22;15458;53.346;-1.688;2023-10-08T12:05:38;25.70;93.00
28171;DHT22;15458;53.346;-1.688;2023-10-08T12:08:16;25.80;91.30
28171;DHT22;15458;53.346;-1.688;2023-10-08T12:10:43;25.90;90.20
28171;DHT22;15458;53.346;-1.688;2023-10-08T12:13:09;25.90;89.30
28171;DHT22;15458;53.346;-1.688;2023-10-08T12:15:36;25.80;87.20
28171;DHT22;15458;53.346;-1.688;2023-10-08T12:18:07;25.60;86.60
28171;DHT22;15458;53.346;-1.688;2023-10-08T12:20:50;25.30;86.60
28171;DHT22;15458;53.346;-1.688;2023-10-08T12:23:16;25.30;86.90
28171;DHT22;15458;53.346;-1.688;2023-10-08T12:25:54;25.30;87.20
28171;DHT22;15458;53.346;-1.688;2023-10-08T12:28:23;25.40;86.90
28171;DHT22;15458;53.346;-1.688;2023-10-08T12:30:55;25.40;85.80
28171;DHT22;15458;53.346;-1.688;2023-10-08T12:33:23;25.40;85.40
28171;DHT22;15458;53.346;-1.688;2023-10-08T12:35:54;25.10;84.70
28171;DHT22;15458;53.346;-1.688;2023-10-08T12:38:31;24.80;84.50
28171;DHT22;15458;53.346;-1.688;2023-10-08T12:40:57;24.50;83.80
28171;DHT22;15458;53.346;-1.688;2023-10-08T12:43:25;24.40;83.40
28171;DHT22;15458;53.346;-1.688;2023-10-08T12:45:54;24.20;83.40
28171;DHT22;15458;53.346;-1.688;2023-10-08T12:48:27;24.10;83.40
28171;DHT22;15458;53.346;-1.688;2023-10-08T12:51:03;24.00;82.80
28171;DHT22;15458;53.346;-1.688;2023-10-08T12:53:32;23.90;82.30
28171;DHT22;15458;53.346;-1.688;2023-10-08T12:56:06;23.80;82.00
28171;DHT22;15458;53.346;-1.688;2023-10-08T12:58:41;23.70;81.40
28171;DHT22;15458;53.346;-1.688;2023-10-08T13:01:12;23.60;81.20
28171;DHT22;15458;53.346;-1.688;2023-10-08T13:03:39;23.40;81.00
28171;DHT22;15458;53.346;-1.688;2023-10-08T13:06:12;23.30;80.80
28171;DHT22;15458;53.346;-1.688;2023-10-08T13:08:48;23.20;80.80
28171;DHT22;15458;53.346;-1.688;2023-10-08T13:11:14;23.20;81.20
28171;DHT22;15458;53.346;-1.688;2023-10-08T13:13:40;23.20;81.10
28171;DHT22;15458;53.346;-1.688;2023-10-08T13:16:07;23.10;81.00
28171;DHT22;15458;53.346;-1.688;2023-10-08T13:18:35;23.10;81.10
28171;DHT22;15458;53.346;-1.688;2023-10-08T13:21:06;23.00;81.20
28171;DHT22;15458;53.346;-1.688;2023-10-08T13:23:37;23.10;81.70
28171;DHT22;15458;53.346;-1.688;2023-10-08T13:26:03;23.20;82.30
28171;DHT22;15458;53.346;-1.688;2023-10-08T13:28:36;23.20;82.40
28171;DHT22;15458;53.346;-1.688;2023-10-08T13:31:07;23.30;81.80
28171;DHT22;15458;53.346;-1.688;2023-10-08T13:33:40;23.40;81.50
28171;DHT22;15458;53.346;-1.688;2023-10-08T13:36:14;23.50;81.30
28171;DHT22;15458;53.346;-1.688;2023-10-08T13:38:41;23.50;80.60
28171;DHT22;15458;53.346;-1.688;2023-10-08T13:41:10;23.60;79.60
28171;DHT22;15458;53.346;-1.688;2023-10-08T13:43:42;23.70;78.60
28171;DHT22;15458;53.346;-1.688;2023-10-08T13:46:12;23.90;77.90
28171;DHT22;15458;53.346;-1.688;2023-10-08T13:48:40;24.10;77.00
28171;DHT22;15458;53.346;-1.688;2023-10-08T13:51:07;24.30;76.30
28171;DHT22;15458;53.346;-1.688;2023-10-08T13:53:36;24.70;75.70
28171;DHT22;15458;53.346;-1.688;2023-10-08T13:56:05;25.10;74.50
28171;DHT22;15458;53.346;-1.688;2023-10-08T13:58:32;25.40;73.60
28171;DHT22;15458;53.346;-1.688;2023-10-08T14:01:08;25.60;72.70
28171;DHT22;15458;53.346;-1.688;2023-10-08T14:03:51;25.60;72.00
28171;DHT22;15458;53.346;-1.688;2023-10-08T14:06:20;25.30;71.10
28171;DHT22;15458;53.346;-1.688;2023-10-08T14:08:47;25.00;71.20
28171;DHT22;15458;53.346;-1.688;2023-10-08T14:11:19;25.00;71.60
28171;DHT22;15458;53.346;-1.688;2023-10-08T14:13:49;25.00;71.60
28171;DHT22;15458;53.346;-1.688;2023-10-08T14:16:21;25.20;70.90
28171;DHT22;15458;53.346;-1.688;2023-10-08T14:18:54;25.50;70.20
28171;DHT22;15458;53.346;-1.688;2023-10-08T14:21:26;25.60;68.80
28171;DHT22;15458;53.346;-1.688;2023-10-08T14:24:06;25.70;67.60
28171;DHT22;15458;53.346;-1.688;2023-10-08T14:26:42;25.80;66.60
28171;DHT22;15458;53.346;-1.688;2023-10-08T14:29:08;26.00;66.00
28171;DHT22;15458;53.346;-1.688;2023-10-08T14:31:37;26.20;65.40
28171;DHT22;15458;53.346;-1.688;2023-10-08T14:34:07;26.20;64.60
28171;DHT22;15458;53.346;-1.688;2023-10-08T14:36:48;26.20;63.80
28171;DHT22;15458;53.346;-1.688;2023-10-08T14:39:33;26.10;64.10
28171;DHT22;15458;53.346;-1.688;2023-10-08T14:42:24;25.80;64.90
28171;DHT22;15458;53.346;-1.688;2023-10-08T14:45:09;25.50;64.90
28171;DHT22;15458;53.346;-1.688;2023-10-08T14:47:39;25.40;65.40
28171;DHT22;15458;53.346;-1.688;2023-10-08T14:50:06;25.50;65.40
28171;DHT22;15458;53.346;-1.688;2023-10-08T14:52:46;25.60;64.90
28171;DHT22;15458;53.346;-1.688;2023-10-08T14:55:15;25.70;64.40
28171;DHT22;15458;53.346;-1.688;2023-10-08T14:57:42;25.80;64.70
28171;DHT22;15458;53.346;-1.688;2023-10-08T15:00:13;25.90;64.50
28171;DHT22;15458;53.346;-1.688;2023-10-08T15:02:39;26.10;64.20
28171;DHT22;15458;53.346;-1.688;2023-10-08T15:05:15;26.40;63.90
28171;DHT22;15458;53.346;-1.688;2023-10-08T15:07:41;26.60;63.00
28171;DHT22;15458;53.346;-1.688;2023-10-08T15:10:13;26.70;62.60
28171;DHT22;15458;53.346;-1.688;2023-10-08T15:12:48;26.80;62.50
28171;DHT22;15458;53.346;-1.688;2023-10-08T15:15:20;26.80;62.60
28171;DHT22;15458;53.346;-1.688;2023-10-08T15:18:08;26.70;62.40
28171;DHT22;15458;53.346;-1.688;2023-10-08T15:20:44;26.60;62.80
28171;DHT22;15458;53.346;-1.688;2023-10-08T15:23:34;26.60;63.30
28171;DHT22;15458;53.346;-1.688;2023-10-08T15:26:04;26.70;63.40
28171;DHT22;15458;53.346;-1.688;2023-10-08T15:28:30;26.70;63.10
28171;DHT22;15458;53.346;-1.688;2023-10-08T15:30:57;26.70;62.70
28171;DHT22;15458;53.346;-1.688;2023-10-08T15:33:23;26.70;62.30
28171;DHT22;15458;53.346;-1.688;2023-10-08T15:35:57;26.60;62.30
28171;DHT22;15458;53.346;-1.688;2023-10-08T15:38:25;26.50;62.00
28171;DHT22;15458;53.346;-1.688;2023-10-08T15:40:51;26.50;62.20
28171;DHT22;15458;53.346;-1.688;2023-10-08T15:43:17;26.30;62.40
28171;DHT22;15458;53.346;-1.688;2023-10-08T15:45:47;26.10;62.90
28171;DHT22;15458;53.346;-1.688;2023-10-08T15:48:18;25.90;63.10
28171;DHT22;15458;53.346;-1.688;2023-10-08T15:50:44;25.80;63.50
28171;DHT22;15458;53.346;-1.688;2023-10-08T15:53:16;25.60;64.10
28171;DHT22;15458;53.346;-1.688;2023-10-08T15:55:41;25.60;65.00